Whiteman Air Force Base
KSZL : now visible

Airfield :











YOU CAN JOIN US ON...

 
LOGIN :

Register | Disclaimer

   EN    FR    IT 

 









Legend :    VFR   Marginal VFR   IFR   Intensive IFR   Very Intensive IFR
Visi :
Ceiling :
>= 8 km
>= 3000ft
5 to 8 km
1000 to 3000 ft
1500m to 5 km
500 to 1000 ft
800 to 1500m
200 to 500 ft
< 800m
< 200 ft
Symbols :   Thunderstorms  Fog  Heavy snow  Heavy precipitations  Wind > 20 kt






- Airport Elevation : 870 ft


KSZL - Whiteman Air Force Base

CURRENT METAR :
  • 271455Z AUTO 27004KT 10SM CLR 23/15 A2989 RMK AO2 SLP118 T02280154 52025 $

EXPIRED METARs :
  • 271355Z AUTO 00000KT 10SM CLR 21/16 A2988 RMK AO2 SLP115 T02090161 $
  • 271255Z AUTO 34004KT 10SM CLR 19/16 A2984 RMK AO2 SLP101 T01890157 $
  • 271155Z AUTO 32004KT 10SM CLR 18/16 A2982 RMK AO2 SLP095 T01770155 10205 20160 52025 $
  • 271055Z AUTO 31003KT 10SM CLR 16/14 A2979 RMK AO2 SLP084 T01610143 $

Expired Forecast.
KZKC FIR / North America



MET'MAP, your aeronautical weather chart ! - Copyright ORBIFLY December 2007 - Disclaimer

ORBIFLY MET'MAP TEAM :

Programming & Development : Alexandra Zaïnal
Original concept : Baudouin d'Aumeries
Technical & hardware support : Manuel Goepfert
Assistance : Marc-Olivier Méhu




SOURCES & CREDITS :

   NOAA       Earth
Advisory